Time;durP1;ratioP1;P1;durP2;ratioP2;P2;SDS_P1;SDS_P2;PMS_P1;PMS_P2;Temp;Humidity;BMP_temperature;BMP_pressure;BME280_temperature;BME280_humidity;BME280_pressure;Samples;Min_cycle;Max_cycle;Signal;HPM_P1;HPM_P2
2022/01/15 06:17:34;;;;;;;;;;;;;;;6.03;82.83;99112.22;6211019;22;19956;-65
2022/01/15 06:20:01;;;;;;;;;;;;;;;6.04;82.40;99109.09;6251903;23;19966;-67
2022/01/15 06:22:29;;;;;;;;;;;;;;;6.08;82.29;99106.44;6252372;23;19965;-67
2022/01/15 06:24:56;;;;;;;;;;;;;;;6.06;82.76;99111.53;6251234;23;19945;-67
2022/01/15 06:27:25;;;;;;;;;;;;;;;6.08;82.62;99109.22;6251312;23;19945;-67
2022/01/15 06:29:55;;;;;;;;;;;;;;;6.08;82.48;99107.25;6251470;23;19943;-67
2022/01/15 06:32:24;;;;;;;;;;;;;;;6.10;82.05;99118.81;6250975;23;19949;-67
2022/01/15 06:34:52;;;;;;;;;;;;;;;6.13;81.21;99122.88;6252652;23;20213;-67
2022/01/15 06:37:19;;;;;;;;;;;;;;;6.18;79.72;99125.41;6252257;23;19947;-68
2022/01/15 06:39:47;;;;;;;;;;;;;;;6.23;78.93;99133.50;6251318;23;19972;-68
2022/01/15 06:42:14;;;;;;;;;;;;;;;6.27;77.91;99132.47;6251056;23;19940;-67
2022/01/15 06:44:42;;;;;;;;;;;;;;;6.33;77.64;99127.47;6251530;23;19955;-68
2022/01/15 06:47:10;;;;;;;;;;;;;;;6.33;76.35;99141.38;6251054;23;20386;-68
2022/01/15 06:49:37;;;;;;;;;;;;;;;6.36;77.38;99135.09;6251967;23;19948;-67
2022/01/15 06:52:05;;;;;;;;;;;;;;;6.37;76.60;99139.50;6251668;23;19955;-67
2022/01/15 06:54:32;;;;;;;;;;;;;;;6.37;76.00;99139.50;6251675;23;19948;-67
2022/01/15 06:57:00;;;;;;;;;;;;;;;6.26;77.87;99141.94;6251320;23;19950;-67
2022/01/15 06:59:27;;;;;;;;;;;;;;;6.22;78.38;99143.81;6251500;23;20294;-67
2022/01/15 07:01:54;;;;;;;;;;;;;;;6.22;78.72;99141.03;6251388;23;20203;-67
2022/01/15 07:04:23;;;;;;;;;;;;;;;6.23;78.28;99150.16;6251484;23;19950;-67
2022/01/15 07:06:50;;;;;;;;;;;;;;;6.28;77.12;99155.50;6250689;23;19950;-67
2022/01/15 07:09:18;;;;;;;;;;;;;;;6.29;77.49;99157.91;6250927;23;19957;-67
2022/01/15 07:11:45;;;;;;;;;;;;;;;6.31;76.89;99149.25;6252254;23;19940;-67
2022/01/15 07:14:12;;;;;;;;;;;;;;;6.32;77.80;99154.44;6252366;23;20012;-67
2022/01/15 07:16:39;;;;;;;;;;;;;;;6.29;79.75;99151.53;6224915;23;19953;-67
2022/01/15 07:19:07;;;;;;;;;;;;;;;6.29;81.03;99154.31;6250512;23;19970;-67
2022/01/15 07:21:34;;;;;;;;;;;;;;;6.35;82.03;99161.28;6253039;23;19943;-67
2022/01/15 07:24:02;;;;;;;;;;;;;;;6.47;83.18;99162.06;6251264;23;19945;-67
2022/01/15 07:26:29;;;;;;;;;;;;;;;6.67;82.83;99165.03;6250568;23;20089;-67
2022/01/15 07:28:58;;;;;;;;;;;;;;;7.09;81.77;99164.28;6251131;23;20319;-67
2022/01/15 07:31:25;;;;;;;;;;;;;;;7.84;77.50;99165.19;6250295;23;19951;-67
2022/01/15 07:33:53;;;;;;;;;;;;;;;9.13;70.39;99165.81;6250561;23;19955;-67
2022/01/15 07:36:20;;;;;;;;;;;;;;;10.96;62.47;99172.97;6251935;23;19948;-67
2022/01/15 07:38:47;;;;;;;;;;;;;;;13.30;51.84;99185.16;6251884;23;19989;-68
2022/01/15 07:41:15;;;;;;;;;;;;;;;15.75;42.08;99179.88;6251938;23;19943;-68
2022/01/15 07:43:42;;;;;;;;;;;;;;;18.15;35.32;99188.78;6249565;23;19940;-69
2022/01/15 07:46:14;;;;;;;;;;;;;;;20.58;30.59;99188.91;6256141;23;19941;-69
2022/01/15 07:48:41;;;;;;;;;;;;;;;22.42;27.08;99205.25;6250021;23;19941;-69
2022/01/15 07:51:09;;;;;;;;;;;;;;;23.92;24.51;99205.31;6249601;23;19945;-70
2022/01/15 07:53:37;;;;;;;;;;;;;;;25.11;23.45;99204.59;6250271;23;20282;-70
2022/01/15 07:56:04;;;;;;;;;;;;;;;26.21;22.07;99207.00;6250775;23;19950;-71
2022/01/15 07:58:32;;;;;;;;;;;;;;;27.10;20.86;99214.91;6249988;23;19938;-72
2022/01/15 08:00:59;;;;;;;;;;;;;;;28.07;19.97;99207.31;6250083;23;19939;-69
2022/01/15 08:03:28;;;;;;;;;;;;;;;29.10;19.03;99223.13;6251390;23;20290;-68
2022/01/15 08:05:56;;;;;;;;;;;;;;;29.77;18.16;99224.88;6249942;23;20194;-68
2022/01/15 08:08:23;;;;;;;;;;;;;;;30.59;17.32;99228.34;6249671;23;19940;-69
2022/01/15 08:10:51;;;;;;;;;;;;;;;31.09;16.60;99232.44;6222736;23;19937;-69
2022/01/15 08:13:19;;;;;;;;;;;;;;;31.71;16.01;99238.06;6250688;23;20193;-68
2022/01/15 08:15:46;;;;;;;;;;;;;;;32.04;15.79;99237.38;6250166;23;19936;-69
2022/01/15 08:18:13;;;;;;;;;;;;;;;32.81;15.57;99241.72;6249148;23;19963;-69
2022/01/15 08:20:41;;;;;;;;;;;;;;;33.23;15.15;99244.34;6250291;23;20328;-69
2022/01/15 08:23:08;;;;;;;;;;;;;;;33.86;14.38;99240.69;6249565;23;19944;-69
2022/01/15 08:25:36;;;;;;;;;;;;;;;34.21;13.93;99237.91;6248932;23;19937;-69
2022/01/15 08:28:03;;;;;;;;;;;;;;;34.52;13.57;99248.25;6249798;23;20284;-69
2022/01/15 08:30:30;;;;;;;;;;;;;;;34.98;13.19;99253.97;6250461;23;19973;-69
2022/01/15 08:32:58;;;;;;;;;;;;;;;34.86;13.65;99249.59;6250059;23;20297;-69
2022/01/15 08:35:25;;;;;;;;;;;;;;;33.54;13.83;99246.91;6250194;23;19944;-69
2022/01/15 08:37:54;;;;;;;;;;;;;;;31.69;15.17;99242.78;6250387;23;20191;-69
2022/01/15 08:40:22;;;;;;;;;;;;;;;29.83;16.01;99242.25;6250251;23;19957;-69
2022/01/15 08:42:49;;;;;;;;;;;;;;;27.98;17.44;99241.84;6250576;23;19941;-69
2022/01/15 08:45:17;;;;;;;;;;;;;;;26.87;18.44;99238.66;6249314;23;19945;-68
2022/01/15 08:47:44;;;;;;;;;;;;;;;25.79;19.35;99237.59;6251370;23;19940;-69
2022/01/15 08:50:12;;;;;;;;;;;;;;;24.77;20.24;99223.56;6250642;23;19943;-69
2022/01/15 08:52:40;;;;;;;;;;;;;;;23.33;21.57;99223.38;6249661;23;20318;-69
2022/01/15 08:55:08;;;;;;;;;;;;;;;21.87;23.02;99225.66;6250193;23;19946;-68
2022/01/15 08:57:36;;;;;;;;;;;;;;;20.46;24.47;99221.66;6250347;23;19945;-68
2022/01/15 09:00:06;;;;;;;;;;;;;;;19.29;26.67;99216.84;6251172;23;19960;-68
2022/01/15 09:02:33;;;;;;;;;;;;;;;18.28;28.05;99221.75;6249646;23;19945;-68
2022/01/15 09:05:00;;;;;;;;;;;;;;;17.46;29.21;99221.19;6249773;23;19942;-68
2022/01/15 09:07:29;;;;;;;;;;;;;;;16.87;30.43;99217.00;6250853;23;20181;-68
2022/01/15 09:09:57;;;;;;;;;;;;;;;16.29;31.48;99215.81;6251277;23;19941;-68
2022/01/15 09:12:24;;;;;;;;;;;;;;;15.78;32.72;99207.25;6251226;23;19936;-68
2022/01/15 09:14:52;;;;;;;;;;;;;;;15.48;33.72;99212.66;6224945;23;19949;-68
2022/01/15 09:17:19;;;;;;;;;;;;;;;15.18;33.78;99206.66;6250522;23;19938;-68
2022/01/15 09:19:47;;;;;;;;;;;;;;;14.77;36.04;99209.94;6219631;23;19954;-68
2022/01/15 09:22:14;;;;;;;;;;;;;;;14.60;36.56;99221.25;6220404;23;19946;-68
2022/01/15 09:24:44;;;;;;;;;;;;;;;14.37;36.78;99211.19;6221520;23;19941;-68
2022/01/15 09:30:19;;;;;;;;;;;;;;;14.20;38.00;99225.19;6220891;23;19944;-68
2022/01/15 09:32:48;;;;;;;;;;;;;;;14.05;38.47;99217.94;6221695;23;20210;-68
2022/01/15 09:35:17;;;;;;;;;;;;;;;13.97;38.66;99221.91;6222035;23;19947;-68
2022/01/15 09:37:46;;;;;;;;;;;;;;;13.83;39.70;99229.13;6222105;23;19940;-68
2022/01/15 09:40:14;;;;;;;;;;;;;;;13.80;40.92;99229.91;6221346;23;19966;-68
2022/01/15 09:42:44;;;;;;;;;;;;;;;13.74;40.80;99233.53;6222758;23;19941;-68
2022/01/15 09:45:11;;;;;;;;;;;;;;;13.66;41.31;99229.06;6221446;23;19953;-68
2022/01/15 09:47:40;;;;;;;;;;;;;;;13.63;42.22;99235.47;6219865;23;19937;-68
2022/01/15 09:50:09;;;;;;;;;;;;;;;13.66;42.37;99229.88;6220648;23;19940;-68
2022/01/15 09:52:36;;;;;;;;;;;;;;;13.70;42.91;99230.69;6221543;23;19939;-68
2022/01/15 09:55:05;;;;;;;;;;;;;;;13.73;43.40;99229.09;6221809;23;19943;-68
2022/01/15 09:57:33;;;;;;;;;;;;;;;13.72;44.03;99233.09;6221245;23;20327;-68
2022/01/15 10:00:02;;;;;;;;;;;;;;;13.72;43.53;99228.28;6221324;23;20340;-68
2022/01/15 10:02:39;;;;;;;;;;;;;;;13.74;43.58;99230.72;6232535;23;19942;-68
2022/01/15 10:05:06;;;;;;;;;;;;;;;13.79;45.44;99228.28;6221333;23;19936;-68
2022/01/15 10:07:34;;;;;;;;;;;;;;;13.69;47.57;99226.25;6222419;23;19938;-68
2022/01/15 10:10:18;;;;;;;;;;;;;;;13.78;46.26;99229.50;6221918;23;20093;-68
2022/01/15 10:12:45;;;;;;;;;;;;;;;13.97;44.94;99224.72;6206779;23;19935;-68
2022/01/15 10:15:14;;;;;;;;;;;;;;;14.03;45.07;99226.78;6221829;23;19948;-68
2022/01/15 10:17:43;;;;;;;;;;;;;;;14.19;43.40;99226.38;6225892;23;20208;-67
2022/01/15 10:20:14;;;;;;;;;;;;;;;14.12;42.90;99235.63;6251413;23;19960;-68
2022/01/15 10:22:43;;;;;;;;;;;;;;;14.07;42.92;99233.19;6252350;23;20294;-68
2022/01/15 10:25:17;;;;;;;;;;;;;;;14.19;42.55;99229.19;6251549;23;19939;-68
2022/01/15 10:27:47;;;;;;;;;;;;;;;14.24;42.45;99237.25;6262858;23;20201;-68
2022/01/15 10:30:16;;;;;;;;;;;;;;;14.26;42.49;99227.19;6251646;23;19939;-68
2022/01/15 10:32:58;;;;;;;;;;;;;;;14.09;42.24;99224.34;6251276;23;19948;-68
2022/01/15 10:35:32;;;;;;;;;;;;;;;14.09;42.39;99227.16;6262778;23;19945;-68
2022/01/15 10:38:01;;;;;;;;;;;;;;;14.06;41.81;99225.16;6252025;23;19943;-68
2022/01/15 10:40:40;;;;;;;;;;;;;;;14.03;42.09;99220.34;6250603;23;19960;-68
2022/01/15 10:43:08;;;;;;;;;;;;;;;13.92;42.14;99216.69;6262495;23;20202;-68
2022/01/15 10:45:46;;;;;;;;;;;;;;;14.05;42.65;99221.56;6225700;23;19943;-68
2022/01/15 10:48:25;;;;;;;;;;;;;;;14.26;41.97;99226.38;6251882;23;19944;-68
2022/01/15 10:51:10;;;;;;;;;;;;;;;14.13;42.04;99216.75;6251529;23;19940;-68
2022/01/15 10:53:38;;;;;;;;;;;;;;;14.37;41.43;99214.00;6262292;23;19933;-68
2022/01/15 10:56:07;;;;;;;;;;;;;;;14.49;41.68;99207.16;6251286;23;19940;-68
2022/01/15 10:58:35;;;;;;;;;;;;;;;14.53;42.08;99216.38;6251399;23;19940;-68
2022/01/15 11:01:03;;;;;;;;;;;;;;;14.50;42.54;99205.94;6251560;23;20213;-68
2022/01/15 11:03:41;;;;;;;;;;;;;;;14.39;42.92;99214.38;6251455;23;20206;-68
2022/01/15 11:06:08;;;;;;;;;;;;;;;14.24;42.35;99204.28;6250418;23;19955;-68
2022/01/15 11:08:39;;;;;;;;;;;;;;;14.22;42.36;99203.91;6251835;23;19939;-68
2022/01/15 11:11:08;;;;;;;;;;;;;;;14.15;41.88;99208.72;6249581;23;20315;-68
2022/01/15 11:13:37;;;;;;;;;;;;;;;14.15;42.59;99187.00;6251627;23;19941;-68
2022/01/15 11:16:10;;;;;;;;;;;;;;;14.18;42.86;99196.66;6251329;23;19944;-68
2022/01/15 11:18:39;;;;;;;;;;;;;;;14.15;46.67;99194.63;6250680;23;19966;-68
2022/01/15 11:21:15;;;;;;;;;;;;;;;14.22;44.57;99191.84;6224691;23;19962;-68
2022/01/15 11:23:43;;;;;;;;;;;;;;;14.16;43.86;99182.16;6251564;23;19950;-68
2022/01/15 11:26:15;;;;;;;;;;;;;;;13.94;45.44;99172.13;6250915;23;19940;-68
2022/01/15 11:28:45;;;;;;;;;;;;;;;13.91;44.71;99167.28;6251305;23;19943;-68
2022/01/15 11:31:15;;;;;;;;;;;;;;;13.99;44.95;99169.69;6250969;23;20288;-68
2022/01/15 11:33:47;;;;;;;;;;;;;;;14.06;43.77;99164.09;6250989;23;19947;-68
2022/01/15 11:36:31;;;;;;;;;;;;;;;14.04;42.49;99168.50;6262156;23;19936;-68
2022/01/15 11:39:00;;;;;;;;;;;;;;;14.09;42.61;99163.28;6250966;23;19940;-68
2022/01/15 11:41:27;;;;;;;;;;;;;;;14.09;41.85;99162.47;6250564;23;19962;-68
2022/01/15 11:43:58;;;;;;;;;;;;;;;14.04;40.07;99163.69;6251318;23;19940;-68
2022/01/15 11:46:31;;;;;;;;;;;;;;;14.00;39.58;99153.63;6250183;23;19940;-68
2022/01/15 11:49:16;;;;;;;;;;;;;;;14.01;39.39;99155.25;6250109;23;19941;-68
2022/01/15 11:51:44;;;;;;;;;;;;;;;14.06;39.99;99143.63;6250847;23;19945;-68
2022/01/15 11:54:11;;;;;;;;;;;;;;;14.08;40.88;99142.00;6250349;23;20190;-68
2022/01/15 11:56:42;;;;;;;;;;;;;;;14.10;41.22;99135.97;6224937;23;20199;-68
2022/01/15 11:59:28;;;;;;;;;;;;;;;14.11;40.97;99135.56;6249656;23;19947;-68
2022/01/15 12:01:57;;;;;;;;;;;;;;;14.09;41.29;99120.28;6251194;23;19967;-68
2022/01/15 12:04:35;;;;;;;;;;;;;;;14.11;41.41;99117.91;6250146;23;19946;-68
2022/01/15 12:07:05;;;;;;;;;;;;;;;14.12;41.02;99127.94;6261567;23;19931;-68
2022/01/15 12:09:38;;;;;;;;;;;;;;;14.11;41.37;99118.69;6249025;23;19943;-68
2022/01/15 12:12:31;;;;;;;;;;;;;;;14.08;41.85;99113.88;6250206;23;19942;-71
2022/01/15 12:14:58;;;;;;;;;;;;;;;14.01;41.31;99110.25;6250431;23;20201;-70
2022/01/15 12:17:25;;;;;;;;;;;;;;;14.00;40.00;99109.44;6225443;23;20294;-68
2022/01/15 12:19:53;;;;;;;;;;;;;;;13.84;41.33;99106.22;6249262;23;19949;-68
2022/01/15 12:22:39;;;;;;;;;;;;;;;13.92;41.74;99099.41;6250295;23;19995;-68
2022/01/15 12:25:07;;;;;;;;;;;;;;;13.84;42.44;99097.78;6250332;23;19942;-80
2022/01/15 12:27:35;;;;;;;;;;;;;;;13.81;42.62;99099.38;6224702;23;20207;-70
2022/01/15 12:30:06;;;;;;;;;;;;;;;13.79;43.75;99095.38;6250539;23;19948;-68
2022/01/15 12:32:38;;;;;;;;;;;;;;;13.73;47.41;99099.78;6250212;23;20336;-70
2022/01/15 12:35:15;;;;;;;;;;;;;;;13.61;48.98;99094.56;6261859;23;19963;-69
2022/01/15 12:37:51;;;;;;;;;;;;;;;13.54;51.84;99089.72;6250179;23;20321;-69
2022/01/15 12:40:20;;;;;;;;;;;;;;;13.09;57.83;99088.38;6223555;23;19949;-70
2022/01/15 12:43:14;;;;;;;;;;;;;;;13.14;59.47;99087.19;6250488;23;19962;-70
2022/01/15 12:45:42;;;;;;;;;;;;;;;12.96;62.45;99078.66;6205251;23;19950;-68
2022/01/15 12:48:13;;;;;;;;;;;;;;;12.91;63.80;99086.69;6249239;23;19945;-68
2022/01/15 12:50:46;;;;;;;;;;;;;;;12.61;65.21;99077.72;6248591;23;19940;-67
2022/01/15 12:53:14;;;;;;;;;;;;;;;12.45;67.02;99073.19;6250019;23;19944;-68
2022/01/15 12:55:42;;;;;;;;;;;;;;;12.26;71.06;99073.47;6250189;23;19948;-68
2022/01/15 12:58:10;;;;;;;;;;;;;;;12.20;71.28;99074.25;6250242;23;19939;-68
2022/01/15 13:00:38;;;;;;;;;;;;;;;12.02;75.08;99073.31;6249159;23;20010;-68
2022/01/15 13:03:13;;;;;;;;;;;;;;;11.58;78.11;99070.50;6249883;23;19941;-68
2022/01/15 13:05:42;;;;;;;;;;;;;;;11.38;80.54;99066.28;6250392;23;19945;-68
2022/01/15 13:08:11;;;;;;;;;;;;;;;11.34;82.68;99059.84;6249488;23;19998;-68
2022/01/15 13:10:53;;;;;;;;;;;;;;;11.28;82.14;99062.19;6249254;23;19948;-68
2022/01/15 13:13:21;;;;;;;;;;;;;;;11.29;83.52;99054.59;6249494;23;20330;-68
2022/01/15 13:15:57;;;;;;;;;;;;;;;11.26;82.33;99060.97;6250454;23;19949;-67
2022/01/15 13:18:24;;;;;;;;;;;;;;;11.39;82.35;99062.31;6250027;23;19971;-68
2022/01/15 13:20:53;;;;;;;;;;;;;;;11.19;81.69;99059.72;6249436;23;19951;-67
2022/01/15 13:23:21;;;;;;;;;;;;;;;11.31;82.63;99055.00;6250451;23;19943;-68
2022/01/15 13:25:49;;;;;;;;;;;;;;;11.25;81.08;99059.38;6247976;23;19942;-67
2022/01/15 13:28:17;;;;;;;;;;;;;;;11.04;81.11;99057.94;6249621;23;19944;-66
2022/01/15 13:30:45;;;;;;;;;;;;;;;10.97;83.58;99055.06;6247636;23;19944;-67
2022/01/15 13:33:13;;;;;;;;;;;;;;;10.91;81.40;99059.38;6248004;23;19944;-67
2022/01/15 13:35:42;;;;;;;;;;;;;;;10.91;80.37;99058.56;6248243;23;19952;-67
2022/01/15 13:38:14;;;;;;;;;;;;;;;10.74;81.44;99051.56;6249166;23;19960;-68
2022/01/15 13:40:48;;;;;;;;;;;;;;;10.86;80.22;99056.91;6250094;23;19945;-67
2022/01/15 13:43:31;;;;;;;;;;;;;;;10.79;79.12;99058.81;6249493;23;19955;-68
2022/01/15 13:46:08;;;;;;;;;;;;;;;10.67;78.73;99054.28;6250267;23;19945;-67
2022/01/15 13:48:37;;;;;;;;;;;;;;;10.48;81.25;99058.03;6249317;23;19949;-68
2022/01/15 13:54:11;;;;;;;;;;;;;;;10.43;78.62;99051.97;6260962;23;19935;-68
2022/01/15 13:56:40;;;;;;;;;;;;;;;10.39;78.93;99051.91;6250073;23;19939;-69
2022/01/15 13:59:09;;;;;;;;;;;;;;;10.37;78.97;99047.88;6248850;23;19942;-69
2022/01/15 14:01:37;;;;;;;;;;;;;;;10.32;79.05;99048.22;6249082;23;19964;-68
2022/01/15 14:04:19;;;;;;;;;;;;;;;10.16;79.45;99048.38;6249873;23;19946;-69
2022/01/15 14:06:47;;;;;;;;;;;;;;;10.20;80.20;99040.84;6223353;23;19942;-69
2022/01/15 14:09:15;;;;;;;;;;;;;;;10.11;80.18;99047.88;6250071;23;19948;-69
2022/01/15 14:11:58;;;;;;;;;;;;;;;10.24;79.74;99046.50;6249871;23;19944;-69
2022/01/15 14:14:26;;;;;;;;;;;;;;;10.20;82.91;99046.44;6261141;23;19971;-69
2022/01/15 14:16:54;;;;;;;;;;;;;;;10.16;80.42;99048.38;6251120;23;19950;-69
2022/01/15 14:22:15;;;;;;;;;;;;;;;10.15;80.72;99046.75;6248902;23;19967;-69
2022/01/15 14:24:47;;;;;;;;;;;;;;;10.11;81.06;99037.50;6251327;23;19951;-69
2022/01/15 14:27:22;;;;;;;;;;;;;;;9.96;81.17;99037.66;6251349;23;19945;-69
2022/01/15 14:29:50;;;;;;;;;;;;;;;9.95;79.51;99044.44;6262701;23;19948;-69
2022/01/15 14:32:18;;;;;;;;;;;;;;;9.86;80.12;99034.31;6251083;23;19945;-69
2022/01/15 14:34:49;;;;;;;;;;;;;;;9.83;80.40;99035.06;6251278;23;19950;-69
2022/01/15 14:37:16;;;;;;;;;;;;;;;9.86;81.70;99028.75;6251523;23;19942;-69
2022/01/15 14:39:44;;;;;;;;;;;;;;;9.80;81.36;99030.25;6251255;23;19948;-69
2022/01/15 14:42:11;;;;;;;;;;;;;;;9.90;79.91;99026.81;6251590;23;19957;-69
2022/01/15 14:44:39;;;;;;;;;;;;;;;9.77;81.90;99024.59;6251359;23;20196;-67
2022/01/15 14:47:06;;;;;;;;;;;;;;;9.72;81.30;99014.56;6250563;23;20409;-67
2022/01/15 14:49:33;;;;;;;;;;;;;;;9.67;81.95;99012.09;6251634;23;19945;-69
2022/01/15 14:52:01;;;;;;;;;;;;;;;9.66;82.98;99016.03;6252178;23;19937;-69
2022/01/15 14:54:29;;;;;;;;;;;;;;;9.59;82.06;99010.34;6251141;23;19943;-69
2022/01/15 14:56:56;;;;;;;;;;;;;;;9.67;82.53;99012.09;6252280;23;19939;-69
2022/01/15 14:59:24;;;;;;;;;;;;;;;9.56;82.43;99025.06;6250866;23;20287;-69
2022/01/15 15:01:52;;;;;;;;;;;;;;;9.50;82.81;99022.94;6250471;23;19966;-69
2022/01/15 15:04:19;;;;;;;;;;;;;;;9.58;83.95;99016.31;6251150;23;20170;-69
2022/01/15 15:06:46;;;;;;;;;;;;;;;9.49;83.25;99024.94;6250813;23;19947;-69
2022/01/15 15:09:14;;;;;;;;;;;;;;;9.47;84.21;99024.50;6250469;23;19942;-69
2022/01/15 15:11:41;;;;;;;;;;;;;;;9.38;84.27;99023.16;6250136;23;20212;-69
2022/01/15 15:14:08;;;;;;;;;;;;;;;9.43;82.62;99023.66;6249222;23;20198;-69
2022/01/15 15:16:36;;;;;;;;;;;;;;;9.29;83.92;99025.38;6251273;23;19943;-69
2022/01/15 15:19:03;;;;;;;;;;;;;;;9.25;84.72;99028.09;6250480;23;19970;-69
2022/01/15 15:21:33;;;;;;;;;;;;;;;9.24;84.71;99020.94;6249920;23;19944;-70
2022/01/15 15:24:02;;;;;;;;;;;;;;;9.24;86.07;99018.13;6250273;23;19946;-69
2022/01/15 15:26:29;;;;;;;;;;;;;;;9.20;86.20;99020.03;6251124;23;19942;-69
2022/01/15 15:28:56;;;;;;;;;;;;;;;9.18;86.49;99014.03;6251607;23;19967;-69
2022/01/15 15:31:23;;;;;;;;;;;;;;;9.15;86.85;99012.78;6250467;23;19955;-69
2022/01/15 15:33:51;;;;;;;;;;;;;;;9.03;87.59;99012.16;6251580;23;20194;-69
2022/01/15 15:36:19;;;;;;;;;;;;;;;8.95;90.34;99018.78;6250454;23;19943;-69
2022/01/15 15:38:46;;;;;;;;;;;;;;;8.96;90.14;99017.59;6250454;23;19956;-69
2022/01/15 15:41:13;;;;;;;;;;;;;;;8.85;90.51;99019.38;6250409;23;20173;-69
2022/01/15 15:43:41;;;;;;;;;;;;;;;8.86;91.76;99018.19;6249955;23;19969;-69
2022/01/15 15:46:08;;;;;;;;;;;;;;;8.84;92.70;99017.75;6250874;23;19949;-69
2022/01/15 15:48:36;;;;;;;;;;;;;;;8.73;93.74;99011.19;6224089;23;19945;-69
2022/01/15 15:51:03;;;;;;;;;;;;;;;8.58;94.71;99021.25;6251763;23;19943;-69
2022/01/15 15:53:30;;;;;;;;;;;;;;;8.50;96.54;99020.28;6250546;23;19948;-69
2022/01/15 15:55:58;;;;;;;;;;;;;;;8.41;96.16;99022.47;6250939;23;19947;-69
2022/01/15 15:58:27;;;;;;;;;;;;;;;8.37;96.70;99024.38;6251393;23;20317;-69
2022/01/15 16:00:54;;;;;;;;;;;;;;;8.40;96.50;99028.41;6249965;23;19945;-69
2022/01/15 16:03:22;;;;;;;;;;;;;;;8.35;97.46;99026.72;6250541;23;19964;-69
2022/01/15 16:05:49;;;;;;;;;;;;;;;8.41;98.03;99028.03;6249930;23;20283;-69
2022/01/15 16:08:16;;;;;;;;;;;;;;;8.32;99.43;99023.84;6250231;23;19965;-69
2022/01/15 16:10:44;;;;;;;;;;;;;;;8.25;100.00;99027.28;6251027;23;20196;-70
2022/01/15 16:13:11;;;;;;;;;;;;;;;8.21;100.00;99029.19;6250265;23;19948;-71
2022/01/15 16:15:38;;;;;;;;;;;;;;;8.18;100.00;99026.31;6250433;23;19947;-69
2022/01/15 16:18:06;;;;;;;;;;;;;;;8.07;100.00;99022.50;6250318;23;19972;-70
2022/01/15 16:20:33;;;;;;;;;;;;;;;8.06;100.00;99026.44;6251464;23;19944;-70
2022/01/15 16:23:00;;;;;;;;;;;;;;;8.05;100.00;99035.94;6249370;23;19969;-70
2022/01/15 16:25:28;;;;;;;;;;;;;;;7.93;100.00;99022.97;6249092;23;19949;-71
2022/01/15 16:27:55;;;;;;;;;;;;;;;7.93;100.00;99020.97;6250977;23;19969;-70
2022/01/15 16:30:27;;;;;;;;;;;;;;;7.93;100.00;99031.31;6250102;23;19944;-70
2022/01/15 16:32:54;;;;;;;;;;;;;;;7.90;100.00;99032.03;6250197;23;20167;-70
2022/01/15 16:35:21;;;;;;;;;;;;;;;7.84;100.00;99031.53;6249670;23;19944;-70
2022/01/15 16:37:49;;;;;;;;;;;;;;;7.86;100.00;99037.53;6248347;23;19947;-71
2022/01/15 16:40:16;;;;;;;;;;;;;;;7.78;100.00;99043.28;6249177;23;19960;-72
2022/01/15 16:42:44;;;;;;;;;;;;;;;7.72;100.00;99042.78;6248647;23;20220;-72
2022/01/15 16:45:12;;;;;;;;;;;;;;;7.73;100.00;99041.59;6248681;23;19945;-71
2022/01/15 16:47:40;;;;;;;;;;;;;;;7.74;100.00;99039.63;6248611;23;19969;-70
2022/01/15 16:50:09;;;;;;;;;;;;;;;7.65;100.00;99036.22;6248239;23;19962;-72
2022/01/15 16:52:37;;;;;;;;;;;;;;;7.64;100.00;99040.16;6247702;23;19958;-71
2022/01/15 16:55:09;;;;;;;;;;;;;;;7.57;100.00;99048.34;6249212;23;19953;-71
2022/01/15 16:57:36;;;;;;;;;;;;;;;7.56;100.00;99053.09;6248047;23;20251;-71
2022/01/15 17:00:04;;;;;;;;;;;;;;;7.63;100.00;99042.13;6249713;23;19950;-70
2022/01/15 17:02:31;;;;;;;;;;;;;;;7.54;100.00;99049.06;6248140;23;19942;-70
2022/01/15 17:04:59;;;;;;;;;;;;;;;7.57;100.00;99054.72;6248512;23;19946;-74
2022/01/15 17:07:26;;;;;;;;;;;;;;;7.54;100.00;99046.25;6248485;23;20210;-71
2022/01/15 17:09:54;;;;;;;;;;;;;;;7.53;100.00;99042.66;6248703;23;19949;-69
2022/01/15 17:12:21;;;;;;;;;;;;;;;7.60;100.00;99048.44;6248522;23;19946;-69
2022/01/15 17:14:50;;;;;;;;;;;;;;;7.56;100.00;99053.09;6248454;23;19953;-69
2022/01/15 17:17:17;;;;;;;;;;;;;;;7.55;100.00;99051.50;6247978;23;20006;-69
2022/01/15 17:19:45;;;;;;;;;;;;;;;7.63;100.00;99060.81;6249299;23;20354;-69
2022/01/15 17:22:12;;;;;;;;;;;;;;;7.66;100.00;99054.50;6248544;23;20021;-69
2022/01/15 17:24:39;;;;;;;;;;;;;;;7.66;100.00;99057.31;6248133;23;19969;-69
2022/01/15 17:27:07;;;;;;;;;;;;;;;7.66;100.00;99060.91;6248320;23;19951;-69
2022/01/15 17:29:34;;;;;;;;;;;;;;;7.67;100.00;99061.72;6247731;23;19949;-69
2022/01/15 17:32:02;;;;;;;;;;;;;;;7.63;100.00;99060.81;6222872;23;19947;-69
2022/01/15 17:34:30;;;;;;;;;;;;;;;7.58;100.00;99072.22;6248809;23;19937;-69
2022/01/15 17:36:57;;;;;;;;;;;;;;;7.56;100.00;99071.75;6248229;23;19965;-69
2022/01/15 17:39:25;;;;;;;;;;;;;;;7.52;100.00;99070.88;6248291;23;19948;-69
2022/01/15 17:41:53;;;;;;;;;;;;;;;7.50;100.00;99067.66;6248348;23;19948;-69
2022/01/15 17:44:21;;;;;;;;;;;;;;;7.58;100.00;99075.00;6247781;23;19974;-69
2022/01/15 17:46:48;;;;;;;;;;;;;;;7.59;100.00;99069.06;6248127;23;20215;-69
2022/01/15 17:49:17;;;;;;;;;;;;;;;7.63;100.00;99072.75;6248513;23;19945;-69
2022/01/15 17:51:45;;;;;;;;;;;;;;;7.66;100.00;99069.25;6248390;23;20337;-79
2022/01/15 17:54:12;;;;;;;;;;;;;;;7.71;100.00;99068.16;6251430;23;20413;-76
2022/01/15 17:56:40;;;;;;;;;;;;;;;7.67;100.00;99070.06;6249790;23;19940;-76
2022/01/15 17:59:07;;;;;;;;;;;;;;;7.56;100.00;99072.56;6249612;23;20707;-76
2022/01/15 18:01:34;;;;;;;;;;;;;;;7.47;100.00;99071.13;6249816;23;19945;-75
2022/01/15 18:04:02;;;;;;;;;;;;;;;7.39;100.00;99072.09;6251126;23;19965;-73
2022/01/15 18:06:29;;;;;;;;;;;;;;;7.31;100.00;99070.34;6250557;23;19945;-70
2022/01/15 18:08:57;;;;;;;;;;;;;;;7.29;100.00;99068.69;6249271;23;19949;-71
2022/01/15 18:11:25;;;;;;;;;;;;;;;7.28;100.00;99071.84;6249983;23;20635;-72
2022/01/15 18:13:54;;;;;;;;;;;;;;;7.24;100.00;99074.53;6250315;23;19949;-72
2022/01/15 18:16:21;;;;;;;;;;;;;;;7.19;100.00;99074.78;6249728;23;19940;-70
2022/01/15 18:18:48;;;;;;;;;;;;;;;7.17;100.00;99079.91;6249628;23;19970;-71
2022/01/15 18:21:16;;;;;;;;;;;;;;;7.13;100.00;99090.13;6249744;23;19978;-71
2022/01/15 18:23:43;;;;;;;;;;;;;;;7.09;100.00;99083.66;6249305;23;20223;-70
2022/01/15 18:26:11;;;;;;;;;;;;;;;7.08;100.00;99087.63;6247761;23;20608;-71
2022/01/15 18:28:38;;;;;;;;;;;;;;;7.03;100.00;99099.00;6250250;23;19949;-71
2022/01/15 18:31:06;;;;;;;;;;;;;;;6.99;100.00;99100.84;6249991;23;20015;-70
2022/01/15 18:33:33;;;;;;;;;;;;;;;6.95;100.00;99094.38;6248949;23;19945;-70
2022/01/15 18:36:01;;;;;;;;;;;;;;;6.90;100.00;99089.06;6249443;23;19938;-73
2022/01/15 18:38:28;;;;;;;;;;;;;;;6.88;100.00;99093.38;6250598;23;19945;-70
2022/01/15 18:40:56;;;;;;;;;;;;;;;6.86;100.00;99095.69;6249662;23;19948;-71
2022/01/15 18:43:23;;;;;;;;;;;;;;;6.84;100.00;99092.47;6249636;23;19959;-71
2022/01/15 18:45:51;;;;;;;;;;;;;;;6.81;100.00;99094.00;6249530;23;20316;-71
2022/01/15 18:48:19;;;;;;;;;;;;;;;6.80;100.00;99102.69;6249491;23;20253;-69
2022/01/15 18:50:46;;;;;;;;;;;;;;;6.77;100.00;99097.84;6250714;23;19948;-71
2022/01/15 18:53:14;;;;;;;;;;;;;;;6.77;100.00;99103.41;6249829;23;19945;-70
2022/01/15 18:55:41;;;;;;;;;;;;;;;6.73;100.00;99092.16;6248944;23;19938;-70
2022/01/15 18:58:08;;;;;;;;;;;;;;;6.71;100.00;99093.69;6249363;23;19950;-69
2022/01/15 19:00:37;;;;;;;;;;;;;;;6.72;100.00;99098.09;6250757;23;19939;-69
2022/01/15 19:03:04;;;;;;;;;;;;;;;6.76;100.00;99096.22;6248688;23;19953;-70
2022/01/15 19:05:32;;;;;;;;;;;;;;;6.75;100.00;99095.38;6249002;23;19972;-69
2022/01/15 19:08:01;;;;;;;;;;;;;;;6.79;100.00;99101.88;6249923;23;20285;-70
2022/01/15 19:10:29;;;;;;;;;;;;;;;6.80;100.00;99102.69;6249002;23;19963;-69
2022/01/15 19:12:57;;;;;;;;;;;;;;;6.76;100.00;99108.13;6249748;23;19952;-69
2022/01/15 19:15:29;;;;;;;;;;;;;;;6.78;100.00;99111.38;6249183;23;19953;-69
2022/01/15 19:18:00;;;;;;;;;;;;;;;6.78;100.00;99113.34;6249011;23;20359;-68
2022/01/15 19:20:27;;;;;;;;;;;;;;;6.78;100.00;99110.56;6249331;23;19970;-69
2022/01/15 19:22:54;;;;;;;;;;;;;;;6.81;100.00;99116.22;6250318;23;19945;-69
2022/01/15 19:25:27;;;;;;;;;;;;;;;6.78;100.00;99114.16;6248927;23;20313;-70